createdAt,value
2018-09-08T00:04:16.175Z,13.5
2018-09-08T00:19:28.480Z,11
2018-09-08T00:39:28.569Z,12.4
2018-09-08T00:54:44.126Z,11.4
2018-09-08T01:09:43.846Z,10.6
2018-09-08T01:24:44.256Z,15.5
2018-09-08T01:44:56.760Z,11.6
2018-09-08T01:59:56.868Z,13.2
2018-09-08T02:14:56.720Z,16.7
2018-09-08T02:34:56.946Z,22.4
2018-09-08T02:50:09.945Z,26.2
2018-09-08T03:20:09.863Z,17.3
2018-09-08T03:40:21.692Z,21.2
2018-09-08T03:55:21.824Z,17.8
2018-09-08T04:10:22.395Z,14.8
2018-09-08T04:30:22.250Z,13
2018-09-08T04:45:37.885Z,19.1
2018-09-08T05:00:37.657Z,19.2
2018-09-08T05:20:38.325Z,19
2018-09-08T05:35:50.634Z,20.9
2018-09-08T05:50:50.534Z,16.1
2018-09-08T06:05:50.511Z,15.3
2018-09-08T06:25:50.603Z,15.2
2018-09-08T06:41:02.059Z,13.9
2018-09-08T06:56:02.418Z,10.9
2018-09-08T07:16:07.300Z,13.9
2018-09-08T07:31:05.954Z,13.3
2018-09-08T07:46:03.947Z,10.5
2018-09-08T08:06:07.368Z,9.5
2018-09-08T08:21:19.523Z,12.3
2018-09-08T08:36:19.552Z,12.9
2018-09-08T08:51:19.612Z,12
2018-09-08T09:11:19.835Z,15.9
2018-09-08T09:26:32.165Z,7.9
2018-09-08T10:16:44.548Z,9.7
2018-09-08T10:31:45.125Z,6.6
2018-09-08T11:36:59.433Z,5.2
2018-09-08T11:57:00.989Z,3.6
2018-09-08T12:12:11.334Z,13.9
2018-09-08T12:27:11.125Z,3.6
2018-09-08T12:47:11.374Z,6.1
2018-09-08T13:17:24.185Z,4
2018-09-08T13:32:23.940Z,4.4
2018-09-08T13:52:28.800Z,4
2018-09-08T14:07:39.645Z,11.4
2018-09-08T14:22:39.670Z,3.5
2018-09-08T14:42:39.666Z,4.2
2018-09-08T14:57:39.639Z,3.1
2018-09-08T15:12:52.369Z,4.5
2018-09-08T15:32:52.975Z,3.4
2018-09-08T15:47:52.290Z,7.5
2018-09-08T16:02:52.199Z,5
2018-09-08T16:17:53.313Z,2.8
2018-09-08T16:38:05.784Z,3.6
2018-09-08T16:53:07.036Z,3.4
2018-09-08T17:08:18.100Z,4.2
2018-09-08T17:43:18.995Z,3.7
2018-09-08T17:58:31.417Z,4.5
2018-09-08T18:18:30.615Z,6.1
2018-09-08T18:33:32.267Z,6.2
2018-09-08T18:48:43.419Z,10.9
2018-09-08T19:03:46.533Z,6.3
2018-09-08T19:23:55.640Z,6.2
2018-09-08T19:53:55.530Z,7.4
2018-09-08T21:34:19.932Z,8.5
2018-09-08T21:49:31.568Z,9.2
2018-09-08T22:09:31.535Z,7.2
2018-09-08T22:24:46.069Z,11.4
2018-09-08T22:39:45.912Z,7.5
2018-09-08T22:54:49.366Z,7.2
2018-09-08T23:14:57.896Z,7.7
2018-09-08T23:29:57.928Z,7.1
2018-09-08T23:44:58.450Z,6.8
